Terminal Aerodrome Forecast
Issued by NWS

Home | Current Version | Previous Version | Text Only | Print | Product List | Glossary On
Versions: 1 2 3 4 5 6 7 8 9 10 11 12 13 14
000
FTUS43 KICT 211100
TAFSLN
TAF
KSLN 211120Z 2112/2212 19013KT P6SM FEW100 SCT250
     FM211500 20019G27KT P6SM FEW060 SCT250
     FM220100 18014G20KT P6SM SCT120
     FM220800 19013KT P6SM VCTS BKN100CB=

USA.gov is the U.S. government's official web portal to all federal, state and local government web resources and services.